sensor_id;sensor_type;location;lat;lon;timestamp;P1;durP1;ratioP1;P2;durP2;ratioP2
46757;SDS011;32509;47.750;-3.396;2024-03-22T00:01:48;49.22;;;44.42;;
46757;SDS011;32509;47.750;-3.396;2024-03-22T00:04:17;50.53;;;45.50;;
46757;SDS011;32509;47.750;-3.396;2024-03-22T00:06:43;51.10;;;45.13;;
46757;SDS011;32509;47.750;-3.396;2024-03-22T00:09:11;50.38;;;45.60;;
46757;SDS011;32509;47.750;-3.396;2024-03-22T00:11:38;51.10;;;45.78;;
46757;SDS011;32509;47.750;-3.396;2024-03-22T00:14:05;51.30;;;45.67;;
46757;SDS011;32509;47.750;-3.396;2024-03-22T00:16:31;49.55;;;44.47;;
46757;SDS011;32509;47.750;-3.396;2024-03-22T00:18:57;44.40;;;40.00;;
46757;SDS011;32509;47.750;-3.396;2024-03-22T00:21:23;44.88;;;40.75;;
46757;SDS011;32509;47.750;-3.396;2024-03-22T00:23:49;41.38;;;37.45;;
46757;SDS011;32509;47.750;-3.396;2024-03-22T00:26:15;47.63;;;42.63;;
46757;SDS011;32509;47.750;-3.396;2024-03-22T00:28:41;51.65;;;46.10;;
46757;SDS011;32509;47.750;-3.396;2024-03-22T00:31:07;44.90;;;40.10;;
46757;SDS011;32509;47.750;-3.396;2024-03-22T00:33:33;44.70;;;40.65;;
46757;SDS011;32509;47.750;-3.396;2024-03-22T00:35:59;46.08;;;41.75;;
46757;SDS011;32509;47.750;-3.396;2024-03-22T00:38:25;42.53;;;38.55;;
46757;SDS011;32509;47.750;-3.396;2024-03-22T00:40:51;47.13;;;42.40;;
46757;SDS011;32509;47.750;-3.396;2024-03-22T00:43:17;47.22;;;42.47;;
46757;SDS011;32509;47.750;-3.396;2024-03-22T00:45:43;44.70;;;40.65;;
46757;SDS011;32509;47.750;-3.396;2024-03-22T00:48:08;45.65;;;41.17;;
46757;SDS011;32509;47.750;-3.396;2024-03-22T00:50:34;45.95;;;41.55;;
46757;SDS011;32509;47.750;-3.396;2024-03-22T00:53:03;43.75;;;39.25;;
46757;SDS011;32509;47.750;-3.396;2024-03-22T00:55:30;43.28;;;39.42;;
46757;SDS011;32509;47.750;-3.396;2024-03-22T00:57:56;45.38;;;41.08;;
46757;SDS011;32509;47.750;-3.396;2024-03-22T01:00:22;78.68;;;44.15;;
46757;SDS011;32509;47.750;-3.396;2024-03-22T01:02:49;45.17;;;40.72;;
46757;SDS011;32509;47.750;-3.396;2024-03-22T01:05:15;42.75;;;39.00;;
46757;SDS011;32509;47.750;-3.396;2024-03-22T01:07:42;43.90;;;39.78;;
46757;SDS011;32509;47.750;-3.396;2024-03-22T01:10:08;48.50;;;43.58;;
46757;SDS011;32509;47.750;-3.396;2024-03-22T01:12:34;42.17;;;38.38;;
46757;SDS011;32509;47.750;-3.396;2024-03-22T01:15:00;43.45;;;39.50;;
46757;SDS011;32509;47.750;-3.396;2024-03-22T01:17:26;43.45;;;39.45;;
46757;SDS011;32509;47.750;-3.396;2024-03-22T01:19:52;45.45;;;41.22;;
46757;SDS011;32509;47.750;-3.396;2024-03-22T01:22:17;44.35;;;40.05;;
46757;SDS011;32509;47.750;-3.396;2024-03-22T01:24:44;43.38;;;39.45;;
46757;SDS011;32509;47.750;-3.396;2024-03-22T01:27:10;44.90;;;40.88;;
46757;SDS011;32509;47.750;-3.396;2024-03-22T01:29:36;41.78;;;38.22;;
46757;SDS011;32509;47.750;-3.396;2024-03-22T01:32:02;45.80;;;41.30;;
46757;SDS011;32509;47.750;-3.396;2024-03-22T01:34:28;43.83;;;39.78;;
46757;SDS011;32509;47.750;-3.396;2024-03-22T01:36:54;42.67;;;38.85;;
46757;SDS011;32509;47.750;-3.396;2024-03-22T01:39:20;45.92;;;41.88;;
46757;SDS011;32509;47.750;-3.396;2024-03-22T01:41:47;43.13;;;39.10;;
46757;SDS011;32509;47.750;-3.396;2024-03-22T01:44:13;40.50;;;36.92;;
46757;SDS011;32509;47.750;-3.396;2024-03-22T01:46:42;43.33;;;39.53;;
46757;SDS011;32509;47.750;-3.396;2024-03-22T01:49:09;41.08;;;37.58;;
46757;SDS011;32509;47.750;-3.396;2024-03-22T01:51:39;42.38;;;38.58;;
46757;SDS011;32509;47.750;-3.396;2024-03-22T01:54:05;44.15;;;40.15;;
46757;SDS011;32509;47.750;-3.396;2024-03-22T01:56:36;42.60;;;38.90;;
46757;SDS011;32509;47.750;-3.396;2024-03-22T01:59:03;44.63;;;40.60;;
46757;SDS011;32509;47.750;-3.396;2024-03-22T02:01:30;45.58;;;41.40;;
46757;SDS011;32509;47.750;-3.396;2024-03-22T02:03:56;45.13;;;41.15;;
46757;SDS011;32509;47.750;-3.396;2024-03-22T02:06:22;40.67;;;37.05;;
46757;SDS011;32509;47.750;-3.396;2024-03-22T02:08:48;42.85;;;39.22;;
46757;SDS011;32509;47.750;-3.396;2024-03-22T02:11:13;78.32;;;43.72;;
46757;SDS011;32509;47.750;-3.396;2024-03-22T02:13:39;44.50;;;40.42;;
46757;SDS011;32509;47.750;-3.396;2024-03-22T02:16:05;44.08;;;40.20;;
46757;SDS011;32509;47.750;-3.396;2024-03-22T02:18:31;43.20;;;39.58;;
46757;SDS011;32509;47.750;-3.396;2024-03-22T02:20:57;48.47;;;43.53;;
46757;SDS011;32509;47.750;-3.396;2024-03-22T02:23:41;42.88;;;39.28;;
46757;SDS011;32509;47.750;-3.396;2024-03-22T02:26:07;41.67;;;38.17;;
46757;SDS011;32509;47.750;-3.396;2024-03-22T02:28:33;41.03;;;37.30;;
46757;SDS011;32509;47.750;-3.396;2024-03-22T02:31:01;42.15;;;38.33;;
46757;SDS011;32509;47.750;-3.396;2024-03-22T02:33:27;40.83;;;37.17;;
46757;SDS011;32509;47.750;-3.396;2024-03-22T02:35:53;40.90;;;37.40;;
46757;SDS011;32509;47.750;-3.396;2024-03-22T02:38:19;39.92;;;36.42;;
46757;SDS011;32509;47.750;-3.396;2024-03-22T02:40:45;46.15;;;38.80;;
46757;SDS011;32509;47.750;-3.396;2024-03-22T02:43:13;37.97;;;34.80;;
46757;SDS011;32509;47.750;-3.396;2024-03-22T02:45:39;39.85;;;36.55;;
46757;SDS011;32509;47.750;-3.396;2024-03-22T02:48:05;40.95;;;37.50;;
46757;SDS011;32509;47.750;-3.396;2024-03-22T02:50:35;38.67;;;35.38;;
46757;SDS011;32509;47.750;-3.396;2024-03-22T02:53:01;89.13;;;40.70;;
46757;SDS011;32509;47.750;-3.396;2024-03-22T02:55:28;37.83;;;34.72;;
46757;SDS011;32509;47.750;-3.396;2024-03-22T02:57:53;35.55;;;32.58;;
46757;SDS011;32509;47.750;-3.396;2024-03-22T03:00:21;37.80;;;34.55;;
46757;SDS011;32509;47.750;-3.396;2024-03-22T03:02:47;40.72;;;37.05;;
46757;SDS011;32509;47.750;-3.396;2024-03-22T03:05:13;39.05;;;35.75;;
46757;SDS011;32509;47.750;-3.396;2024-03-22T03:07:39;40.22;;;36.67;;
46757;SDS011;32509;47.750;-3.396;2024-03-22T03:10:05;36.05;;;32.75;;
46757;SDS011;32509;47.750;-3.396;2024-03-22T03:12:32;92.82;;;36.05;;
46757;SDS011;32509;47.750;-3.396;2024-03-22T03:14:57;38.00;;;34.90;;
46757;SDS011;32509;47.750;-3.396;2024-03-22T03:17:23;45.13;;;35.63;;
46757;SDS011;32509;47.750;-3.396;2024-03-22T03:19:49;38.53;;;35.15;;
46757;SDS011;32509;47.750;-3.396;2024-03-22T03:22:15;36.75;;;33.47;;
46757;SDS011;32509;47.750;-3.396;2024-03-22T03:24:41;38.92;;;35.47;;
46757;SDS011;32509;47.750;-3.396;2024-03-22T03:27:06;37.15;;;33.58;;
46757;SDS011;32509;47.750;-3.396;2024-03-22T03:29:32;38.47;;;35.13;;
46757;SDS011;32509;47.750;-3.396;2024-03-22T03:31:58;35.22;;;32.35;;
46757;SDS011;32509;47.750;-3.396;2024-03-22T03:34:24;66.93;;;36.63;;
46757;SDS011;32509;47.750;-3.396;2024-03-22T03:36:50;36.75;;;33.47;;
46757;SDS011;32509;47.750;-3.396;2024-03-22T03:39:15;35.28;;;32.53;;
46757;SDS011;32509;47.750;-3.396;2024-03-22T03:41:41;36.35;;;33.42;;
46757;SDS011;32509;47.750;-3.396;2024-03-22T03:44:07;34.63;;;31.70;;
46757;SDS011;32509;47.750;-3.396;2024-03-22T03:46:33;37.85;;;34.22;;
46757;SDS011;32509;47.750;-3.396;2024-03-22T03:48:58;38.22;;;34.53;;
46757;SDS011;32509;47.750;-3.396;2024-03-22T03:51:24;39.60;;;36.28;;
46757;SDS011;32509;47.750;-3.396;2024-03-22T03:53:50;36.92;;;33.60;;
46757;SDS011;32509;47.750;-3.396;2024-03-22T03:56:16;34.63;;;31.38;;
46757;SDS011;32509;47.750;-3.396;2024-03-22T03:58:41;35.90;;;32.80;;
46757;SDS011;32509;47.750;-3.396;2024-03-22T04:01:07;38.58;;;34.50;;
46757;SDS011;32509;47.750;-3.396;2024-03-22T04:03:34;38.33;;;34.90;;
46757;SDS011;32509;47.750;-3.396;2024-03-22T04:06:00;36.83;;;33.50;;
46757;SDS011;32509;47.750;-3.396;2024-03-22T04:08:26;34.55;;;31.35;;
46757;SDS011;32509;47.750;-3.396;2024-03-22T04:10:53;38.65;;;35.20;;
46757;SDS011;32509;47.750;-3.396;2024-03-22T04:13:21;38.00;;;34.60;;
46757;SDS011;32509;47.750;-3.396;2024-03-22T04:15:46;36.88;;;33.30;;
46757;SDS011;32509;47.750;-3.396;2024-03-22T04:18:12;38.35;;;35.08;;
46757;SDS011;32509;47.750;-3.396;2024-03-22T04:20:38;38.15;;;34.42;;
46757;SDS011;32509;47.750;-3.396;2024-03-22T04:23:04;36.30;;;32.95;;
46757;SDS011;32509;47.750;-3.396;2024-03-22T04:25:29;34.55;;;31.35;;
46757;SDS011;32509;47.750;-3.396;2024-03-22T04:27:55;36.20;;;32.63;;
46757;SDS011;32509;47.750;-3.396;2024-03-22T04:30:21;37.90;;;34.20;;
46757;SDS011;32509;47.750;-3.396;2024-03-22T04:32:47;37.08;;;33.42;;
46757;SDS011;32509;47.750;-3.396;2024-03-22T04:35:12;36.15;;;32.72;;
46757;SDS011;32509;47.750;-3.396;2024-03-22T04:37:39;38.80;;;35.33;;
46757;SDS011;32509;47.750;-3.396;2024-03-22T04:40:04;39.53;;;35.80;;
46757;SDS011;32509;47.750;-3.396;2024-03-22T04:42:31;38.05;;;34.42;;
46757;SDS011;32509;47.750;-3.396;2024-03-22T04:44:57;39.55;;;35.65;;
46757;SDS011;32509;47.750;-3.396;2024-03-22T04:47:23;36.45;;;33.35;;
46757;SDS011;32509;47.750;-3.396;2024-03-22T04:49:49;41.25;;;37.60;;
46757;SDS011;32509;47.750;-3.396;2024-03-22T04:52:14;41.33;;;37.50;;
46757;SDS011;32509;47.750;-3.396;2024-03-22T04:54:40;37.75;;;34.47;;
46757;SDS011;32509;47.750;-3.396;2024-03-22T04:57:06;40.55;;;36.83;;
46757;SDS011;32509;47.750;-3.396;2024-03-22T04:59:32;40.20;;;36.42;;
46757;SDS011;32509;47.750;-3.396;2024-03-22T05:01:58;37.88;;;34.53;;
46757;SDS011;32509;47.750;-3.396;2024-03-22T05:04:23;39.20;;;35.35;;
46757;SDS011;32509;47.750;-3.396;2024-03-22T05:06:49;40.55;;;36.65;;
46757;SDS011;32509;47.750;-3.396;2024-03-22T05:09:15;36.22;;;33.05;;
46757;SDS011;32509;47.750;-3.396;2024-03-22T05:11:40;37.75;;;34.38;;
46757;SDS011;32509;47.750;-3.396;2024-03-22T05:14:06;38.30;;;35.03;;
46757;SDS011;32509;47.750;-3.396;2024-03-22T05:16:32;36.13;;;33.03;;
46757;SDS011;32509;47.750;-3.396;2024-03-22T05:18:58;37.30;;;34.10;;
46757;SDS011;32509;47.750;-3.396;2024-03-22T05:21:24;39.75;;;36.22;;
46757;SDS011;32509;47.750;-3.396;2024-03-22T05:23:50;36.88;;;33.75;;
46757;SDS011;32509;47.750;-3.396;2024-03-22T05:26:16;38.58;;;35.15;;
46757;SDS011;32509;47.750;-3.396;2024-03-22T05:28:43;39.00;;;35.63;;
46757;SDS011;32509;47.750;-3.396;2024-03-22T05:31:09;36.50;;;33.58;;
46757;SDS011;32509;47.750;-3.396;2024-03-22T05:33:35;35.40;;;32.28;;
46757;SDS011;32509;47.750;-3.396;2024-03-22T05:36:00;35.28;;;32.08;;
46757;SDS011;32509;47.750;-3.396;2024-03-22T05:38:26;38.80;;;35.45;;
46757;SDS011;32509;47.750;-3.396;2024-03-22T05:40:52;36.55;;;33.30;;
46757;SDS011;32509;47.750;-3.396;2024-03-22T05:43:18;36.25;;;33.10;;
46757;SDS011;32509;47.750;-3.396;2024-03-22T05:45:43;35.53;;;32.72;;
46757;SDS011;32509;47.750;-3.396;2024-03-22T05:48:09;35.55;;;32.67;;
46757;SDS011;32509;47.750;-3.396;2024-03-22T05:50:35;38.22;;;34.95;;
46757;SDS011;32509;47.750;-3.396;2024-03-22T05:53:00;38.13;;;34.90;;
46757;SDS011;32509;47.750;-3.396;2024-03-22T05:55:26;36.17;;;33.20;;
46757;SDS011;32509;47.750;-3.396;2024-03-22T05:57:56;37.15;;;34.03;;
46757;SDS011;32509;47.750;-3.396;2024-03-22T06:00:21;34.65;;;31.98;;
46757;SDS011;32509;47.750;-3.396;2024-03-22T06:02:47;35.05;;;32.05;;
46757;SDS011;32509;47.750;-3.396;2024-03-22T06:05:13;36.47;;;33.47;;
46757;SDS011;32509;47.750;-3.396;2024-03-22T06:07:39;36.15;;;33.15;;
46757;SDS011;32509;47.750;-3.396;2024-03-22T06:10:08;36.45;;;33.58;;
46757;SDS011;32509;47.750;-3.396;2024-03-22T06:12:37;36.47;;;33.53;;
46757;SDS011;32509;47.750;-3.396;2024-03-22T06:15:03;35.65;;;32.67;;
46757;SDS011;32509;47.750;-3.396;2024-03-22T06:17:31;38.55;;;35.45;;
46757;SDS011;32509;47.750;-3.396;2024-03-22T06:20:00;35.60;;;32.88;;
46757;SDS011;32509;47.750;-3.396;2024-03-22T06:22:26;33.83;;;31.25;;
46757;SDS011;32509;47.750;-3.396;2024-03-22T06:24:52;34.63;;;32.03;;
46757;SDS011;32509;47.750;-3.396;2024-03-22T06:27:19;35.30;;;32.45;;
46757;SDS011;32509;47.750;-3.396;2024-03-22T06:29:44;36.67;;;33.92;;
46757;SDS011;32509;47.750;-3.396;2024-03-22T06:32:11;34.88;;;32.08;;
46757;SDS011;32509;47.750;-3.396;2024-03-22T06:34:37;33.80;;;31.25;;
46757;SDS011;32509;47.750;-3.396;2024-03-22T06:37:03;34.92;;;32.25;;
46757;SDS011;32509;47.750;-3.396;2024-03-22T06:39:29;34.42;;;31.77;;
46757;SDS011;32509;47.750;-3.396;2024-03-22T06:41:55;31.60;;;29.23;;
46757;SDS011;32509;47.750;-3.396;2024-03-22T06:44:21;32.58;;;30.17;;
46757;SDS011;32509;47.750;-3.396;2024-03-22T06:46:47;31.17;;;28.88;;
46757;SDS011;32509;47.750;-3.396;2024-03-22T06:49:13;33.78;;;31.15;;
46757;SDS011;32509;47.750;-3.396;2024-03-22T06:51:38;33.08;;;30.60;;
46757;SDS011;32509;47.750;-3.396;2024-03-22T06:54:04;33.50;;;30.92;;
46757;SDS011;32509;47.750;-3.396;2024-03-22T06:56:30;32.28;;;29.67;;
46757;SDS011;32509;47.750;-3.396;2024-03-22T06:58:56;35.22;;;32.45;;
46757;SDS011;32509;47.750;-3.396;2024-03-22T07:01:21;34.33;;;31.73;;
46757;SDS011;32509;47.750;-3.396;2024-03-22T07:03:47;34.25;;;31.52;;
46757;SDS011;32509;47.750;-3.396;2024-03-22T07:06:16;34.78;;;32.03;;
46757;SDS011;32509;47.750;-3.396;2024-03-22T07:08:42;35.83;;;33.05;;
46757;SDS011;32509;47.750;-3.396;2024-03-22T07:11:07;34.60;;;31.67;;
46757;SDS011;32509;47.750;-3.396;2024-03-22T07:13:33;34.42;;;31.70;;
46757;SDS011;32509;47.750;-3.396;2024-03-22T07:15:59;35.05;;;32.30;;
46757;SDS011;32509;47.750;-3.396;2024-03-22T07:18:25;36.13;;;33.22;;
46757;SDS011;32509;47.750;-3.396;2024-03-22T07:20:51;35.78;;;32.88;;
46757;SDS011;32509;47.750;-3.396;2024-03-22T07:23:17;36.40;;;33.35;;
46757;SDS011;32509;47.750;-3.396;2024-03-22T07:25:43;37.35;;;34.22;;
46757;SDS011;32509;47.750;-3.396;2024-03-22T07:28:10;35.67;;;32.97;;
46757;SDS011;32509;47.750;-3.396;2024-03-22T07:30:37;35.70;;;32.45;;
46757;SDS011;32509;47.750;-3.396;2024-03-22T07:33:03;33.60;;;30.80;;
46757;SDS011;32509;47.750;-3.396;2024-03-22T07:35:29;33.42;;;30.73;;
46757;SDS011;32509;47.750;-3.396;2024-03-22T07:37:54;31.55;;;28.95;;
46757;SDS011;32509;47.750;-3.396;2024-03-22T07:40:21;32.13;;;29.92;;
46757;SDS011;32509;47.750;-3.396;2024-03-22T07:42:46;33.85;;;31.33;;
46757;SDS011;32509;47.750;-3.396;2024-03-22T07:45:12;29.23;;;27.23;;
46757;SDS011;32509;47.750;-3.396;2024-03-22T07:47:38;29.60;;;27.40;;
46757;SDS011;32509;47.750;-3.396;2024-03-22T07:50:07;30.50;;;28.33;;
46757;SDS011;32509;47.750;-3.396;2024-03-22T07:52:33;30.25;;;28.15;;
46757;SDS011;32509;47.750;-3.396;2024-03-22T07:54:59;30.45;;;28.25;;
46757;SDS011;32509;47.750;-3.396;2024-03-22T07:57:27;29.35;;;27.23;;
46757;SDS011;32509;47.750;-3.396;2024-03-22T07:59:56;30.60;;;28.40;;
46757;SDS011;32509;47.750;-3.396;2024-03-22T08:02:24;31.92;;;29.70;;
46757;SDS011;32509;47.750;-3.396;2024-03-22T08:04:50;31.33;;;29.13;;
46757;SDS011;32509;47.750;-3.396;2024-03-22T08:07:16;31.13;;;28.92;;
46757;SDS011;32509;47.750;-3.396;2024-03-22T08:09:41;31.30;;;28.40;;
46757;SDS011;32509;47.750;-3.396;2024-03-22T08:12:07;32.75;;;30.42;;
46757;SDS011;32509;47.750;-3.396;2024-03-22T08:14:33;30.55;;;28.45;;
46757;SDS011;32509;47.750;-3.396;2024-03-22T08:16:58;30.80;;;28.50;;
46757;SDS011;32509;47.750;-3.396;2024-03-22T08:19:24;28.92;;;27.05;;
46757;SDS011;32509;47.750;-3.396;2024-03-22T08:21:50;30.17;;;27.85;;
46757;SDS011;32509;47.750;-3.396;2024-03-22T08:24:16;32.75;;;30.38;;
46757;SDS011;32509;47.750;-3.396;2024-03-22T08:26:43;34.53;;;31.73;;
46757;SDS011;32509;47.750;-3.396;2024-03-22T08:29:12;33.55;;;31.15;;
46757;SDS011;32509;47.750;-3.396;2024-03-22T08:31:41;31.92;;;29.63;;
46757;SDS011;32509;47.750;-3.396;2024-03-22T08:34:07;34.35;;;31.90;;
46757;SDS011;32509;47.750;-3.396;2024-03-22T08:36:33;32.85;;;30.50;;
46757;SDS011;32509;47.750;-3.396;2024-03-22T08:38:59;31.58;;;29.45;;
46757;SDS011;32509;47.750;-3.396;2024-03-22T08:41:25;31.13;;;28.95;;
46757;SDS011;32509;47.750;-3.396;2024-03-22T08:43:51;31.33;;;29.17;;
46757;SDS011;32509;47.750;-3.396;2024-03-22T08:46:17;32.70;;;30.52;;
46757;SDS011;32509;47.750;-3.396;2024-03-22T08:48:42;33.08;;;30.95;;
46757;SDS011;32509;47.750;-3.396;2024-03-22T08:51:08;31.00;;;28.92;;
46757;SDS011;32509;47.750;-3.396;2024-03-22T08:53:34;32.58;;;30.20;;
46757;SDS011;32509;47.750;-3.396;2024-03-22T08:56:00;32.00;;;29.70;;
46757;SDS011;32509;47.750;-3.396;2024-03-22T08:58:25;32.92;;;30.25;;
46757;SDS011;32509;47.750;-3.396;2024-03-22T09:00:51;31.42;;;29.42;;
46757;SDS011;32509;47.750;-3.396;2024-03-22T09:03:17;29.88;;;28.00;;
46757;SDS011;32509;47.750;-3.396;2024-03-22T09:05:43;30.42;;;28.45;;
46757;SDS011;32509;47.750;-3.396;2024-03-22T09:08:09;31.55;;;29.50;;
46757;SDS011;32509;47.750;-3.396;2024-03-22T09:10:34;29.52;;;27.73;;
46757;SDS011;32509;47.750;-3.396;2024-03-22T09:13:00;31.30;;;29.30;;
46757;SDS011;32509;47.750;-3.396;2024-03-22T09:15:26;31.88;;;29.90;;
46757;SDS011;32509;47.750;-3.396;2024-03-22T09:17:52;30.23;;;28.20;;
46757;SDS011;32509;47.750;-3.396;2024-03-22T09:20:18;31.25;;;29.20;;
46757;SDS011;32509;47.750;-3.396;2024-03-22T09:22:44;31.02;;;29.13;;
46757;SDS011;32509;47.750;-3.396;2024-03-22T09:25:09;31.40;;;29.48;;
46757;SDS011;32509;47.750;-3.396;2024-03-22T09:27:35;31.08;;;29.15;;
46757;SDS011;32509;47.750;-3.396;2024-03-22T09:30:01;31.80;;;29.90;;
46757;SDS011;32509;47.750;-3.396;2024-03-22T09:32:29;31.55;;;29.50;;
46757;SDS011;32509;47.750;-3.396;2024-03-22T09:34:55;32.35;;;30.35;;
46757;SDS011;32509;47.750;-3.396;2024-03-22T09:37:21;30.90;;;28.83;;
46757;SDS011;32509;47.750;-3.396;2024-03-22T09:39:46;31.55;;;29.50;;
46757;SDS011;32509;47.750;-3.396;2024-03-22T09:42:13;34.83;;;32.72;;
46757;SDS011;32509;47.750;-3.396;2024-03-22T09:44:44;34.85;;;32.53;;
46757;SDS011;32509;47.750;-3.396;2024-03-22T09:47:16;35.42;;;33.33;;
46757;SDS011;32509;47.750;-3.396;2024-03-22T09:49:42;33.38;;;31.45;;
46757;SDS011;32509;47.750;-3.396;2024-03-22T09:52:12;32.38;;;30.48;;
46757;SDS011;32509;47.750;-3.396;2024-03-22T09:54:40;35.72;;;33.22;;
46757;SDS011;32509;47.750;-3.396;2024-03-22T09:57:08;39.47;;;37.03;;
46757;SDS011;32509;47.750;-3.396;2024-03-22T09:59:46;36.35;;;33.90;;
46757;SDS011;32509;47.750;-3.396;2024-03-22T10:02:12;41.42;;;38.38;;
46757;SDS011;32509;47.750;-3.396;2024-03-22T10:04:41;41.05;;;38.67;;
46757;SDS011;32509;47.750;-3.396;2024-03-22T10:07:07;41.58;;;39.17;;
46757;SDS011;32509;47.750;-3.396;2024-03-22T10:09:35;45.30;;;42.38;;
46757;SDS011;32509;47.750;-3.396;2024-03-22T10:12:01;46.80;;;44.10;;
46757;SDS011;32509;47.750;-3.396;2024-03-22T10:14:28;42.78;;;40.05;;
46757;SDS011;32509;47.750;-3.396;2024-03-22T10:16:55;39.90;;;37.58;;
46757;SDS011;32509;47.750;-3.396;2024-03-22T10:19:21;39.10;;;36.75;;
46757;SDS011;32509;47.750;-3.396;2024-03-22T10:21:47;39.92;;;37.45;;
46757;SDS011;32509;47.750;-3.396;2024-03-22T10:24:25;42.42;;;40.03;;
46757;SDS011;32509;47.750;-3.396;2024-03-22T10:26:52;46.20;;;43.50;;
46757;SDS011;32509;47.750;-3.396;2024-03-22T10:29:18;46.05;;;43.35;;
46757;SDS011;32509;47.750;-3.396;2024-03-22T10:31:45;45.67;;;43.03;;
46757;SDS011;32509;47.750;-3.396;2024-03-22T10:34:12;46.30;;;43.63;;
46757;SDS011;32509;47.750;-3.396;2024-03-22T10:36:40;47.10;;;44.45;;
46757;SDS011;32509;47.750;-3.396;2024-03-22T10:39:06;48.90;;;46.15;;
46757;SDS011;32509;47.750;-3.396;2024-03-22T10:41:34;54.10;;;50.85;;
46757;SDS011;32509;47.750;-3.396;2024-03-22T10:43:59;48.22;;;45.22;;
46757;SDS011;32509;47.750;-3.396;2024-03-22T10:46:29;51.22;;;48.38;;
46757;SDS011;32509;47.750;-3.396;2024-03-22T10:48:56;52.95;;;49.88;;
46757;SDS011;32509;47.750;-3.396;2024-03-22T10:51:25;54.50;;;51.45;;
46757;SDS011;32509;47.750;-3.396;2024-03-22T10:53:52;52.17;;;49.13;;
46757;SDS011;32509;47.750;-3.396;2024-03-22T10:56:19;49.45;;;46.55;;
46757;SDS011;32509;47.750;-3.396;2024-03-22T10:58:48;49.97;;;47.20;;
46757;SDS011;32509;47.750;-3.396;2024-03-22T11:01:21;49.42;;;46.63;;
46757;SDS011;32509;47.750;-3.396;2024-03-22T11:03:48;49.10;;;46.28;;
46757;SDS011;32509;47.750;-3.396;2024-03-22T11:06:17;47.17;;;44.47;;
46757;SDS011;32509;47.750;-3.396;2024-03-22T11:08:44;49.53;;;46.63;;
46757;SDS011;32509;47.750;-3.396;2024-03-22T11:11:16;51.40;;;48.40;;
46757;SDS011;32509;47.750;-3.396;2024-03-22T11:13:46;48.25;;;45.45;;
46757;SDS011;32509;47.750;-3.396;2024-03-22T11:16:14;55.58;;;52.35;;
46757;SDS011;32509;47.750;-3.396;2024-03-22T11:18:40;52.90;;;49.92;;
46757;SDS011;32509;47.750;-3.396;2024-03-22T11:21:06;52.85;;;49.90;;
46757;SDS011;32509;47.750;-3.396;2024-03-22T11:23:35;47.13;;;44.22;;
46757;SDS011;32509;47.750;-3.396;2024-03-22T11:26:02;52.58;;;49.65;;
46757;SDS011;32509;47.750;-3.396;2024-03-22T11:28:28;55.00;;;51.55;;
46757;SDS011;32509;47.750;-3.396;2024-03-22T11:30:55;50.35;;;47.35;;
46757;SDS011;32509;47.750;-3.396;2024-03-22T11:33:21;51.08;;;48.08;;
46757;SDS011;32509;47.750;-3.396;2024-03-22T11:35:47;54.47;;;51.20;;
46757;SDS011;32509;47.750;-3.396;2024-03-22T11:38:14;52.35;;;49.38;;
46757;SDS011;32509;47.750;-3.396;2024-03-22T11:40:42;50.63;;;47.70;;
46757;SDS011;32509;47.750;-3.396;2024-03-22T11:43:09;52.58;;;49.67;;
46757;SDS011;32509;47.750;-3.396;2024-03-22T11:45:36;53.33;;;50.22;;
46757;SDS011;32509;47.750;-3.396;2024-03-22T11:48:02;52.47;;;49.47;;
46757;SDS011;32509;47.750;-3.396;2024-03-22T11:50:28;52.72;;;49.80;;
46757;SDS011;32509;47.750;-3.396;2024-03-22T11:52:54;56.33;;;52.95;;
46757;SDS011;32509;47.750;-3.396;2024-03-22T11:55:21;53.55;;;50.35;;
46757;SDS011;32509;47.750;-3.396;2024-03-22T11:57:50;49.20;;;46.25;;
46757;SDS011;32509;47.750;-3.396;2024-03-22T12:00:17;51.38;;;48.20;;
46757;SDS011;32509;47.750;-3.396;2024-03-22T12:02:44;48.83;;;45.92;;
46757;SDS011;32509;47.750;-3.396;2024-03-22T12:05:11;51.60;;;48.70;;
46757;SDS011;32509;47.750;-3.396;2024-03-22T12:07:37;50.55;;;47.65;;
46757;SDS011;32509;47.750;-3.396;2024-03-22T12:10:03;49.67;;;46.88;;
46757;SDS011;32509;47.750;-3.396;2024-03-22T12:12:29;46.33;;;43.58;;
46757;SDS011;32509;47.750;-3.396;2024-03-22T12:14:55;49.03;;;46.30;;
46757;SDS011;32509;47.750;-3.396;2024-03-22T12:17:21;46.17;;;43.60;;
46757;SDS011;32509;47.750;-3.396;2024-03-22T12:19:46;52.65;;;49.78;;
46757;SDS011;32509;47.750;-3.396;2024-03-22T12:22:12;54.83;;;51.72;;
46757;SDS011;32509;47.750;-3.396;2024-03-22T12:24:38;51.20;;;48.15;;
46757;SDS011;32509;47.750;-3.396;2024-03-22T12:27:04;48.55;;;45.85;;
46757;SDS011;32509;47.750;-3.396;2024-03-22T12:29:33;46.25;;;43.17;;
46757;SDS011;32509;47.750;-3.396;2024-03-22T12:31:59;45.63;;;42.90;;
46757;SDS011;32509;47.750;-3.396;2024-03-22T12:34:27;45.00;;;42.40;;
46757;SDS011;32509;47.750;-3.396;2024-03-22T12:36:54;47.20;;;44.47;;
46757;SDS011;32509;47.750;-3.396;2024-03-22T12:39:20;45.60;;;43.00;;
46757;SDS011;32509;47.750;-3.396;2024-03-22T12:41:46;46.20;;;43.47;;
46757;SDS011;32509;47.750;-3.396;2024-03-22T12:44:12;45.60;;;42.92;;
46757;SDS011;32509;47.750;-3.396;2024-03-22T12:46:37;44.88;;;42.17;;
46757;SDS011;32509;47.750;-3.396;2024-03-22T12:49:03;48.47;;;45.88;;
46757;SDS011;32509;47.750;-3.396;2024-03-22T12:51:29;48.38;;;45.67;;
46757;SDS011;32509;47.750;-3.396;2024-03-22T12:53:55;45.20;;;42.47;;
46757;SDS011;32509;47.750;-3.396;2024-03-22T12:56:21;45.03;;;42.42;;
46757;SDS011;32509;47.750;-3.396;2024-03-22T12:58:47;43.55;;;40.88;;
46757;SDS011;32509;47.750;-3.396;2024-03-22T13:01:13;45.08;;;42.63;;
46757;SDS011;32509;47.750;-3.396;2024-03-22T13:03:39;42.72;;;40.35;;
46757;SDS011;32509;47.750;-3.396;2024-03-22T13:06:05;44.90;;;42.13;;
46757;SDS011;32509;47.750;-3.396;2024-03-22T13:08:31;47.45;;;44.53;;
46757;SDS011;32509;47.750;-3.396;2024-03-22T13:11:00;45.78;;;42.40;;
46757;SDS011;32509;47.750;-3.396;2024-03-22T13:13:26;48.55;;;45.20;;
46757;SDS011;32509;47.750;-3.396;2024-03-22T13:15:52;43.47;;;41.03;;
46757;SDS011;32509;47.750;-3.396;2024-03-22T13:18:18;47.85;;;44.65;;
46757;SDS011;32509;47.750;-3.396;2024-03-22T13:20:46;48.85;;;45.65;;
46757;SDS011;32509;47.750;-3.396;2024-03-22T13:23:12;47.20;;;44.30;;
46757;SDS011;32509;47.750;-3.396;2024-03-22T13:25:38;49.08;;;46.17;;
46757;SDS011;32509;47.750;-3.396;2024-03-22T13:28:04;53.38;;;50.08;;
46757;SDS011;32509;47.750;-3.396;2024-03-22T13:30:33;49.10;;;46.22;;
46757;SDS011;32509;47.750;-3.396;2024-03-22T13:33:00;46.15;;;43.53;;
46757;SDS011;32509;47.750;-3.396;2024-03-22T13:35:26;46.45;;;43.55;;
46757;SDS011;32509;47.750;-3.396;2024-03-22T13:37:52;48.35;;;45.60;;
46757;SDS011;32509;47.750;-3.396;2024-03-22T13:40:18;48.35;;;45.33;;
46757;SDS011;32509;47.750;-3.396;2024-03-22T13:42:43;44.47;;;41.72;;
46757;SDS011;32509;47.750;-3.396;2024-03-22T13:45:09;47.33;;;44.30;;
46757;SDS011;32509;47.750;-3.396;2024-03-22T13:47:35;41.33;;;38.80;;
46757;SDS011;32509;47.750;-3.396;2024-03-22T13:50:06;38.53;;;36.03;;
46757;SDS011;32509;47.750;-3.396;2024-03-22T13:52:35;39.55;;;37.10;;
46757;SDS011;32509;47.750;-3.396;2024-03-22T13:55:04;41.13;;;38.40;;
46757;SDS011;32509;47.750;-3.396;2024-03-22T13:57:33;41.45;;;38.53;;
46757;SDS011;32509;47.750;-3.396;2024-03-22T13:59:59;40.03;;;37.63;;
46757;SDS011;32509;47.750;-3.396;2024-03-22T14:02:28;41.35;;;38.65;;
46757;SDS011;32509;47.750;-3.396;2024-03-22T14:04:53;39.03;;;36.33;;